createdAt,value
2019-04-19T00:00:12.785Z,101195.78
2019-04-19T00:02:44.644Z,101195.48
2019-04-19T00:05:32.745Z,101199.56
2019-04-19T00:08:13.354Z,101200.94
2019-04-19T00:10:35.300Z,101207.25
2019-04-19T00:12:56.586Z,101210.09
2019-04-19T00:15:18.879Z,101201.17
2019-04-19T00:17:45.801Z,101204.45
2019-04-19T00:20:31.332Z,101206.67
2019-04-19T00:22:59.376Z,101211.15
2019-04-19T00:25:11.418Z,101209.70
2019-04-19T00:27:46.113Z,101207.20
2019-04-19T00:30:18.239Z,101211.20
2019-04-19T00:32:54.828Z,101213.23
2019-04-19T00:35:05.646Z,101205.77
2019-04-19T00:37:33.351Z,101208.56
2019-04-19T00:40:22.701Z,101214.80
2019-04-19T00:42:48.401Z,101213.64
2019-04-19T00:45:27.761Z,101215.58
2019-04-19T00:47:51.642Z,101217.03
2019-04-19T00:50:18.494Z,101214.20
2019-04-19T00:52:53.216Z,101218.34
2019-04-19T00:55:13.840Z,101218.34
2019-04-19T00:57:42.020Z,101217.20
2019-04-19T01:00:06.391Z,101214.55
2019-04-19T01:02:36.402Z,101215.54
2019-04-19T01:05:08.872Z,101211.77
2019-04-19T01:07:35.729Z,101218.47
2019-04-19T01:10:14.915Z,101223.63
2019-04-19T01:12:47.913Z,101226.17
2019-04-19T01:15:09.343Z,101224.30
2019-04-19T01:17:46.083Z,101224.55
2019-04-19T01:20:00.273Z,101219.62
2019-04-19T01:22:26.151Z,101220.64
2019-04-19T01:24:51.601Z,101226.05
2019-04-19T01:27:24.717Z,101227.52
2019-04-19T01:29:52.684Z,101225.99
2019-04-19T01:32:19.435Z,101230.37
2019-04-19T01:34:46.722Z,101237.05
2019-04-19T01:37:18.711Z,101236.66
2019-04-19T01:40:00.794Z,101235.91
2019-04-19T01:42:29.491Z,101238.73
2019-04-19T01:44:56.846Z,101236.28
2019-04-19T01:47:31.918Z,101240.95
2019-04-19T01:49:56.255Z,101238.50
2019-04-19T01:52:41.903Z,101239.66
2019-04-19T01:54:54.193Z,101239.49
2019-04-19T01:57:12.767Z,101241.03
2019-04-19T01:59:45.128Z,101246.27
2019-04-19T02:02:13.732Z,101242.86
2019-04-19T02:04:37.698Z,101240.53
2019-04-19T02:07:11.172Z,101246.69
2019-04-19T02:09:48.709Z,101243.44
2019-04-19T02:12:18.153Z,101245.80
2019-04-19T02:14:37.434Z,101245.44
2019-04-19T02:17:03.182Z,101260.27
2019-04-19T02:19:29.401Z,101253.41
2019-04-19T02:21:55.550Z,101260.95
2019-04-19T02:24:29.690Z,101253.80
2019-04-19T02:26:56.806Z,101254.77
2019-04-19T02:29:21.801Z,101256.20
2019-04-19T02:32:15.555Z,101252.67
2019-04-19T02:34:41.518Z,101259.89
2019-04-19T02:42:21.360Z,101255.32
2019-04-19T02:44:46.021Z,101256.35
2019-04-19T02:49:47.971Z,101258.29
2019-04-19T02:52:19.996Z,101261.58
2019-04-19T02:55:00.222Z,101257.88
2019-04-19T02:57:29.772Z,101255.84
2019-04-19T02:59:56.862Z,101259.58
2019-04-19T03:02:35.253Z,101259.06
2019-04-19T03:06:54.300Z,101264.95
2019-04-19T03:09:18.311Z,101261.70
2019-04-19T03:11:56.290Z,101261.36
2019-04-19T03:14:24.558Z,101270.45
2019-04-19T03:16:58.193Z,101266.95
2019-04-19T03:19:22.269Z,101262.03
2019-04-19T03:21:50.349Z,101269.61
2019-04-19T03:24:18.701Z,101270.59
2019-04-19T03:26:46.196Z,101265.89
2019-04-19T03:29:14.850Z,101270.73
2019-04-19T03:31:58.831Z,101264.86
2019-04-19T03:34:31.503Z,101270.59
2019-04-19T03:36:42.491Z,101271.00
2019-04-19T03:39:17.736Z,101278.09
2019-04-19T03:41:57.412Z,101273.42
2019-04-19T03:44:25.268Z,101273.28
2019-04-19T03:46:58.012Z,101269.30
2019-04-19T03:49:30.462Z,101280.27
2019-04-19T03:51:57.391Z,101285.14
2019-04-19T03:54:21.738Z,101275.55
2019-04-19T03:56:43.745Z,101284.30
2019-04-19T03:58:57.403Z,101283.24
2019-04-19T04:01:28.803Z,101284.17
2019-04-19T04:04:01.919Z,101285.85
2019-04-19T04:06:28.786Z,101290.33
2019-04-19T04:09:10.721Z,101291.63
2019-04-19T04:11:51.096Z,101298.76
2019-04-19T04:14:21.828Z,101303.69
2019-04-19T04:16:45.879Z,101298.45
2019-04-19T04:19:10.293Z,101308.20
2019-04-19T04:21:43.385Z,101313.82
2019-04-19T04:24:17.410Z,101315.49
2019-04-19T04:26:48.503Z,101319.33
2019-04-19T04:29:13.611Z,101313.66
2019-04-19T04:31:44.105Z,101324.25
2019-04-19T04:34:10.272Z,101321.23
2019-04-19T04:36:46.468Z,101326.61
2019-04-19T04:38:58.558Z,101332.80
2019-04-19T04:41:28.384Z,101329.22
2019-04-19T04:44:13.534Z,101330.72
2019-04-19T04:46:48.571Z,101334.63
2019-04-19T04:49:32.698Z,101337.58
2019-04-19T04:51:44.523Z,101335.25
2019-04-19T04:54:08.423Z,101337.01
2019-04-19T04:56:47.955Z,101335.75
2019-04-19T04:59:11.614Z,101336.91
2019-04-19T05:01:46.489Z,101345.28
2019-04-19T05:04:15.218Z,101346.39
2019-04-19T05:06:54.355Z,101342.09
2019-04-19T05:09:25.171Z,101344.83
2019-04-19T05:11:47.336Z,101344.09
2019-04-19T05:14:17.918Z,101347.52
2019-04-19T05:17:12.475Z,101347.50
2019-04-19T05:19:13.083Z,101354.09
2019-04-19T05:21:40.164Z,101343.65
2019-04-19T05:24:15.852Z,101348.14
2019-04-19T05:29:03.484Z,101354.70
2019-04-19T05:31:26.707Z,101360.38
2019-04-19T05:34:08.118Z,101358.82
2019-04-19T05:36:35.153Z,101364.44
2019-04-19T05:39:11.286Z,101368.97
2019-04-19T05:41:34.980Z,101364.05
2019-04-19T05:44:31.556Z,101371.47
2019-04-19T05:47:06.290Z,101371.58
2019-04-19T05:49:18.129Z,101380.61
2019-04-19T05:51:47.345Z,101382.12
2019-04-19T05:54:03.492Z,101388.09
2019-04-19T05:56:26.355Z,101381.66
2019-04-19T05:59:03.288Z,101377.23
2019-04-19T06:01:43.181Z,101380.36
2019-04-19T06:04:07.508Z,101379.74
2019-04-19T06:06:45.384Z,101382.85
2019-04-19T06:08:47.607Z,101382.61
2019-04-19T06:11:17.194Z,101377.80
2019-04-19T06:13:51.974Z,101375.06
2019-04-19T06:16:25.425Z,101380.56
2019-04-19T06:18:54.018Z,101383.58
2019-04-19T06:21:27.995Z,101381.52
2019-04-19T06:24:01.716Z,101380.66
2019-04-19T06:29:01.808Z,101384.98
2019-04-19T06:31:27.933Z,101377.38
2019-04-19T06:33:53.364Z,101384.92
2019-04-19T06:36:05.821Z,101380.33
2019-04-19T06:38:30.920Z,101385.77
2019-04-19T06:41:02.208Z,101384.50
2019-04-19T06:43:39.454Z,101383.06
2019-04-19T06:46:10.532Z,101386.89
2019-04-19T06:48:26.992Z,101386.89
2019-04-19T06:50:55.628Z,101389.67
2019-04-19T06:53:18.982Z,101389.03
2019-04-19T06:55:49.895Z,101388.81
2019-04-19T06:58:20.443Z,101379.66
2019-04-19T07:00:57.288Z,101390.45
2019-04-19T07:03:11.424Z,101395.14
2019-04-19T07:05:49.688Z,101393.72
2019-04-19T07:08:51.448Z,101395.55
2019-04-19T07:11:00.512Z,101400.59
2019-04-19T07:13:17.467Z,101402.09
2019-04-19T07:15:59.981Z,101403.29
2019-04-19T07:18:20.075Z,101406.98
2019-04-19T07:20:47.190Z,101402.26
2019-04-19T07:23:16.175Z,101402.72
2019-04-19T07:25:47.760Z,101401.52
2019-04-19T07:28:04.958Z,101403.22
2019-04-19T07:30:22.762Z,101399.70
2019-04-19T07:32:55.558Z,101395.68
2019-04-19T07:35:43.827Z,101402.16
2019-04-19T07:38:15.217Z,101399.59
2019-04-19T07:40:38.456Z,101402.75
2019-04-19T07:43:02.690Z,101404.72
2019-04-19T07:45:24.714Z,101398.54
2019-04-19T07:47:56.606Z,101400.73
2019-04-19T07:50:22.726Z,101403.55
2019-04-19T07:52:52.669Z,101398.64
2019-04-19T07:55:14.184Z,101405.08
2019-04-19T07:58:16.999Z,101400.02
2019-04-19T08:03:17.324Z,101404.20
2019-04-19T08:05:43.916Z,101403.53
2019-04-19T08:13:12.862Z,101399.06
2019-04-19T08:18:20.875Z,101406.49
2019-04-19T08:27:45.767Z,101402.33
2019-04-19T08:30:08.411Z,101396.17
2019-04-19T08:32:32.286Z,101393.09
2019-04-19T08:35:02.801Z,101393.53
2019-04-19T08:37:33.989Z,101395.48
2019-04-19T08:40:08.656Z,101390.70
2019-04-19T08:42:42.609Z,101400.42
2019-04-19T08:44:59.631Z,101382.25
2019-04-19T08:47:32.661Z,101396.72
2019-04-19T08:50:00.947Z,101393.37
2019-04-19T08:52:31.680Z,101390.83
2019-04-19T08:55:14.439Z,101394.66
2019-04-19T08:57:26.071Z,101386.83
2019-04-19T09:00:18.722Z,101390.38
2019-04-19T09:02:34.486Z,101389.02
2019-04-19T09:05:04.835Z,101386.55
2019-04-19T09:07:47.315Z,101389.58
2019-04-19T09:10:18.088Z,101380.17
2019-04-19T09:12:32.364Z,101384.38
2019-04-19T09:15:01.030Z,101388.38
2019-04-19T09:18:09.059Z,101383.99
2019-04-19T09:22:24.355Z,101371.80
2019-04-19T09:24:45.017Z,101381.05
2019-04-19T09:27:29.161Z,101377.98
2019-04-19T09:29:55.147Z,101376.84
2019-04-19T09:32:12.813Z,101378.84
2019-04-19T09:34:39.090Z,101376.48
2019-04-19T09:37:13.045Z,101365.89
2019-04-19T09:39:45.428Z,101367.27
2019-04-19T09:42:15.595Z,101366.82
2019-04-19T09:44:41.572Z,101376.80
2019-04-19T09:47:05.724Z,101361.97
2019-04-19T09:49:47.782Z,101362.39
2019-04-19T09:52:28.949Z,101368.34
2019-04-19T09:54:51.726Z,101365.83
2019-04-19T09:57:13.188Z,101361.19
2019-04-19T09:59:31.190Z,101369.14
2019-04-19T10:01:58.020Z,101363.69
2019-04-19T10:04:23.086Z,101353.40
2019-04-19T10:06:51.114Z,101358.41
2019-04-19T10:09:22.211Z,101356.63
2019-04-19T10:11:47.244Z,101355.93
2019-04-19T10:14:14.973Z,101359.10
2019-04-19T10:16:46.835Z,101354.23
2019-04-19T10:19:13.281Z,101347.06
2019-04-19T10:21:43.585Z,101344.53
2019-04-19T10:24:14.753Z,101348.05
2019-04-19T10:26:52.578Z,101338.08
2019-04-19T10:29:26.555Z,101342.99
2019-04-19T10:31:52.276Z,101339.48
2019-04-19T10:34:18.580Z,101344.25
2019-04-19T10:36:47.743Z,101339.63
2019-04-19T10:39:16.735Z,101345.52
2019-04-19T10:41:44.481Z,101342.34
2019-04-19T10:44:16.579Z,101342.50
2019-04-19T10:46:40.624Z,101341.29
2019-04-19T10:49:13.116Z,101338.31
2019-04-19T10:51:41.872Z,101337.12
2019-04-19T10:54:10.709Z,101331.30
2019-04-19T10:56:40.561Z,101326.62
2019-04-19T10:59:07.168Z,101331.52
2019-04-19T11:01:33.848Z,101325.81
2019-04-19T11:04:00.222Z,101325.01
2019-04-19T11:06:27.193Z,101321.00
2019-04-19T11:08:56.743Z,101323.72
2019-04-19T11:11:23.591Z,101328.11
2019-04-19T11:13:56.764Z,101323.24
2019-04-19T11:16:23.638Z,101318.56
2019-04-19T11:18:49.983Z,101314.56
2019-04-19T11:21:17.784Z,101311.87
2019-04-19T11:23:45.464Z,101313.73
2019-04-19T11:26:12.710Z,101317.89
2019-04-19T11:28:39.193Z,101322.92
2019-04-19T11:31:19.423Z,101319.23
2019-04-19T11:33:47.401Z,101318.59
2019-04-19T11:36:15.341Z,101306.84
2019-04-19T11:38:43.047Z,101310.11
2019-04-19T11:41:09.612Z,101305.20
2019-04-19T11:43:36.293Z,101302.16
2019-04-19T11:46:04.060Z,101299.84
2019-04-19T11:48:32.997Z,101300.84
2019-04-19T11:51:00.060Z,101302.53
2019-04-19T11:53:40.680Z,101304.84
2019-04-19T11:56:10.580Z,101309.21
2019-04-19T11:58:40.361Z,101311.85
2019-04-19T12:01:14.619Z,101317.56
2019-04-19T12:03:43.536Z,101309.84
2019-04-19T12:06:10.088Z,101308.16
2019-04-19T12:08:36.445Z,101311.10
2019-04-19T12:11:02.767Z,101311.34
2019-04-19T12:13:30.684Z,101314.81
2019-04-19T12:15:59.001Z,101321.19
2019-04-19T12:18:28.576Z,101318.82
2019-04-19T12:20:55.463Z,101313.73
2019-04-19T12:23:23.435Z,101313.79
2019-04-19T12:25:51.367Z,101301.45
2019-04-19T12:28:19.896Z,101297.46
2019-04-19T12:30:50.610Z,101304.09
2019-04-19T12:33:15.278Z,101297.38
2019-04-19T12:35:43.218Z,101294.84
2019-04-19T12:38:10.339Z,101302.22
2019-04-19T12:40:40.161Z,101306.70
2019-04-19T12:43:07.740Z,101292.24
2019-04-19T12:45:34.146Z,101288.83
2019-04-19T12:48:00.956Z,101301.15
2019-04-19T12:50:29.523Z,101296.30
2019-04-19T12:52:57.978Z,101303.36
2019-04-19T12:55:24.395Z,101296.66
2019-04-19T12:57:54.166Z,101300.09
2019-04-19T13:00:23.567Z,101292.42
2019-04-19T13:02:52.013Z,101293.59
2019-04-19T13:05:20.440Z,101288.39
2019-04-19T13:07:47.741Z,101291.14
2019-04-19T13:10:15.161Z,101285.14
2019-04-19T13:12:43.898Z,101288.11
2019-04-19T13:15:11.486Z,101291.59
2019-04-19T13:17:38.219Z,101278.45
2019-04-19T13:20:12.767Z,101270.78
2019-04-19T13:22:34.523Z,101274.39
2019-04-19T13:25:01.600Z,101272.19
2019-04-19T13:27:37.368Z,101270.30
2019-04-19T13:30:09.717Z,101270.13
2019-04-19T13:32:25.984Z,101261.43
2019-04-19T13:34:52.453Z,101259.91
2019-04-19T13:37:23.485Z,101252.81
2019-04-19T13:40:02.099Z,101246.55
2019-04-19T13:42:32.902Z,101256.77
2019-04-19T13:45:12.198Z,101251.91
2019-04-19T13:47:28.809Z,101247.61
2019-04-19T13:49:55.981Z,101244.61
2019-04-19T13:52:22.511Z,101249.03
2019-04-19T13:54:50.480Z,101248.03
2019-04-19T13:57:17.620Z,101249.99
2019-04-19T13:59:51.507Z,101243.63
2019-04-19T14:02:12.626Z,101240.06
2019-04-19T14:04:39.807Z,101241.33
2019-04-19T14:07:07.285Z,101243.66
2019-04-19T14:09:33.847Z,101242.57
2019-04-19T14:12:00.885Z,101237.81
2019-04-19T14:14:27.824Z,101241.66
2019-04-19T14:16:55.659Z,101241.72
2019-04-19T14:19:22.695Z,101233.06
2019-04-19T14:21:49.222Z,101234.23
2019-04-19T14:24:15.639Z,101233.80
2019-04-19T14:26:48.675Z,101228.50
2019-04-19T14:29:11.710Z,101225.65
2019-04-19T14:31:38.235Z,101226.59
2019-04-19T14:34:04.873Z,101228.38
2019-04-19T14:36:31.774Z,101224.55
2019-04-19T14:38:58.332Z,101216.45
2019-04-19T14:41:25.422Z,101216.73
2019-04-19T14:43:52.534Z,101215.28
2019-04-19T14:46:18.987Z,101214.25
2019-04-19T14:48:45.351Z,101218.47
2019-04-19T14:51:19.523Z,101214.23
2019-04-19T14:53:40.924Z,101217.55
2019-04-19T14:56:09.062Z,101209.77
2019-04-19T14:58:36.261Z,101210.58
2019-04-19T15:01:08.824Z,101215.18
2019-04-19T15:03:36.888Z,101214.31
2019-04-19T15:06:03.892Z,101202.74
2019-04-19T15:08:30.756Z,101207.29
2019-04-19T15:10:57.701Z,101206.05
2019-04-19T15:13:25.127Z,101202.21
2019-04-19T15:15:52.124Z,101196.41
2019-04-19T15:18:19.110Z,101201.28
2019-04-19T15:20:56.179Z,101196.05
2019-04-19T15:23:16.239Z,101194.56
2019-04-19T15:25:42.768Z,101200.17
2019-04-19T15:28:09.114Z,101192.20
2019-04-19T15:30:35.503Z,101187.70
2019-04-19T15:33:18.959Z,101184.63
2019-04-19T15:35:45.809Z,101189.75
2019-04-19T15:38:12.174Z,101184.33
2019-04-19T15:40:38.464Z,101182.55
2019-04-19T15:43:05.282Z,101174.67
2019-04-19T15:45:32.382Z,101180.05
2019-04-19T15:48:00.267Z,101174.55
2019-04-19T15:50:27.620Z,101177.88
2019-04-19T15:52:54.144Z,101166.41
2019-04-19T15:55:21.922Z,101170.98
2019-04-19T15:57:48.634Z,101170.17
2019-04-19T16:00:22.298Z,101170.86
2019-04-19T16:02:51.845Z,101170.20
2019-04-19T16:05:20.012Z,101169.48
2019-04-19T16:07:55.715Z,101167.00
2019-04-19T16:10:33.244Z,101163.93
2019-04-19T16:13:02.222Z,101157.41
2019-04-19T16:15:29.801Z,101164.56
2019-04-19T16:17:57.786Z,101162.53
2019-04-19T16:20:25.171Z,101157.78
2019-04-19T16:22:52.136Z,101161.09
2019-04-19T16:25:19.160Z,101157.69
2019-04-19T16:27:46.789Z,101161.63
2019-04-19T16:30:16.439Z,101154.06
2019-04-19T16:32:43.491Z,101145.45
2019-04-19T16:35:12.002Z,101142.70
2019-04-19T16:37:39.253Z,101140.17
2019-04-19T16:40:16.450Z,101142.31
2019-04-19T16:42:43.509Z,101138.89
2019-04-19T16:45:12.379Z,101150.77
2019-04-19T16:47:39.481Z,101143.70
2019-04-19T16:50:06.831Z,101142.45
2019-04-19T16:52:33.445Z,101141.70
2019-04-19T16:55:00.564Z,101143.38
2019-04-19T16:57:30.422Z,101145.47
2019-04-19T16:59:55.741Z,101144.97
2019-04-19T17:02:22.727Z,101142.37
2019-04-19T17:04:50.426Z,101148.78
2019-04-19T17:07:18.525Z,101149.75
2019-04-19T17:09:45.248Z,101137.70
2019-04-19T17:12:12.539Z,101143.22
2019-04-19T17:14:39.243Z,101142.94
2019-04-19T17:17:08.602Z,101138.22
2019-04-19T17:19:36.967Z,101140.35
2019-04-19T17:22:11.861Z,101136.62
2019-04-19T17:24:32.273Z,101131.54
2019-04-19T17:26:58.859Z,101136.51
2019-04-19T17:29:26.757Z,101138.87
2019-04-19T17:31:54.219Z,101132.15
2019-04-19T17:34:20.790Z,101136.69
2019-04-19T17:36:48.425Z,101134.78
2019-04-19T17:39:15.015Z,101131.43
2019-04-19T17:41:42.842Z,101130.88
2019-04-19T17:44:09.420Z,101134.13
2019-04-19T17:46:36.206Z,101140.92
2019-04-19T17:49:02.735Z,101139.98
2019-04-19T17:51:29.635Z,101137.31
2019-04-19T17:53:56.351Z,101138.98
2019-04-19T17:56:23.644Z,101140.68
2019-04-19T17:58:50.150Z,101140.10
2019-04-19T18:01:18.058Z,101140.84
2019-04-19T18:03:44.947Z,101143.93
2019-04-19T18:06:12.201Z,101144.58
2019-04-19T18:08:39.832Z,101144.14
2019-04-19T18:11:07.706Z,101145.98
2019-04-19T18:13:35.213Z,101145.64
2019-04-19T18:16:02.743Z,101148.61
2019-04-19T18:18:39.123Z,101147.29
2019-04-19T18:21:02.087Z,101150.48
2019-04-19T18:23:38.217Z,101159.28
2019-04-19T18:25:57.527Z,101158.06
2019-04-19T18:28:34.878Z,101153.69
2019-04-19T18:30:55.698Z,101157.42
2019-04-19T18:33:29.736Z,101156.28
2019-04-19T18:36:03.349Z,101165.42
2019-04-19T18:38:25.820Z,101170.76
2019-04-19T18:40:51.346Z,101170.05
2019-04-19T18:43:27.757Z,101172.70
2019-04-19T18:45:47.908Z,101171.56
2019-04-19T18:48:15.652Z,101176.19
2019-04-19T18:50:48.393Z,101182.68
2019-04-19T18:53:19.036Z,101183.66
2019-04-19T18:55:44.162Z,101179.58
2019-04-19T18:58:19.186Z,101184.53
2019-04-19T19:00:44.538Z,101183.50
2019-04-19T19:03:09.367Z,101191.45
2019-04-19T19:05:44.113Z,101188.78
2019-04-19T19:08:13.713Z,101187.44
2019-04-19T19:10:40.963Z,101197.23
2019-04-19T19:13:02.481Z,101199.42
2019-04-19T19:15:40.043Z,101195.44
2019-04-19T19:17:59.827Z,101192.85
2019-04-19T19:20:36.675Z,101193.53
2019-04-19T19:23:15.089Z,101202.63
2019-04-19T19:25:47.241Z,101200.13
2019-04-19T19:28:06.222Z,101199.64
2019-04-19T19:30:42.742Z,101202.20
2019-04-19T19:33:18.055Z,101196.31
2019-04-19T19:35:45.841Z,101199.22
2019-04-19T19:38:15.537Z,101193.73
2019-04-19T19:40:55.393Z,101190.94
2019-04-19T19:43:27.433Z,101200.61
2019-04-19T19:45:50.787Z,101195.20
2019-04-19T19:48:25.977Z,101200.52
2019-04-19T19:51:06.107Z,101197.53
2019-04-19T19:56:07.336Z,101195.86
2019-04-19T19:58:23.613Z,101198.61
2019-04-19T20:00:56.747Z,101194.16
2019-04-19T20:03:17.524Z,101197.66
2019-04-19T20:05:40.422Z,101201.99
2019-04-19T20:08:05.944Z,101197.55
2019-04-19T20:10:39.826Z,101196.81
2019-04-19T20:13:04.926Z,101197.55
2019-04-19T20:15:34.010Z,101205.23
2019-04-19T20:17:59.418Z,101202.95
2019-04-19T20:20:28.248Z,101200.73
2019-04-19T20:22:55.858Z,101201.91
2019-04-19T20:25:35.751Z,101208.90
2019-04-19T20:27:53.753Z,101209.73
2019-04-19T20:30:19.913Z,101209.94
2019-04-19T20:32:52.887Z,101213.06
2019-04-19T20:35:19.570Z,101213.89
2019-04-19T20:37:46.644Z,101210.96
2019-04-19T20:40:17.178Z,101214.05
2019-04-19T20:43:07.540Z,101215.12
2019-04-19T20:45:24.143Z,101215.39
2019-04-19T20:47:46.172Z,101214.03
2019-04-19T20:50:21.214Z,101211.56
2019-04-19T20:52:51.117Z,101223.97
2019-04-19T20:55:28.116Z,101224.07
2019-04-19T20:57:55.718Z,101225.52
2019-04-19T21:00:16.563Z,101225.10
2019-04-19T21:02:44.009Z,101225.63
2019-04-19T21:05:11.419Z,101226.28
2019-04-19T21:07:40.350Z,101227.58
2019-04-19T21:10:12.866Z,101227.50
2019-04-19T21:12:37.953Z,101225.63
2019-04-19T21:15:13.894Z,101225.50
2019-04-19T21:17:42.412Z,101228.98
2019-04-19T21:20:06.829Z,101233.04
2019-04-19T21:22:36.598Z,101229.26
2019-04-19T21:25:13.969Z,101228.78
2019-04-19T21:27:33.147Z,101236.45
2019-04-19T21:30:04.205Z,101234.75
2019-04-19T21:32:32.145Z,101233.37
2019-04-19T21:35:02.020Z,101237.08
2019-04-19T21:37:29.162Z,101238.43
2019-04-19T21:39:55.850Z,101232.41
2019-04-19T21:42:23.847Z,101236.05
2019-04-19T21:44:51.590Z,101231.05
2019-04-19T21:47:18.358Z,101228.89
2019-04-19T21:49:50.870Z,101228.55
2019-04-19T21:52:17.367Z,101230.80
2019-04-19T21:54:42.144Z,101225.09
2019-04-19T21:57:22.602Z,101232.98
2019-04-19T21:59:44.238Z,101229.38
2019-04-19T22:02:25.633Z,101227.79
2019-04-19T22:04:49.096Z,101230.64
2019-04-19T22:07:15.070Z,101240.41
2019-04-19T22:09:47.567Z,101235.07
2019-04-19T22:12:10.263Z,101243.66
2019-04-19T22:14:36.713Z,101243.54
2019-04-19T22:17:05.543Z,101247.48
2019-04-19T22:19:35.206Z,101253.27
2019-04-19T22:22:00.892Z,101250.64
2019-04-19T22:24:32.361Z,101250.34
2019-04-19T22:26:57.513Z,101254.58
2019-04-19T22:29:24.076Z,101243.22
2019-04-19T22:31:51.766Z,101245.77
2019-04-19T22:34:18.814Z,101242.38
2019-04-19T22:36:50.237Z,101239.27
2019-04-19T22:39:14.115Z,101237.77
2019-04-19T22:41:41.253Z,101241.80
2019-04-19T22:44:08.902Z,101238.88
2019-04-19T22:46:41.821Z,101241.98
2019-04-19T22:49:09.536Z,101238.98
2019-04-19T22:51:32.909Z,101237.36
2019-04-19T22:54:00.902Z,101233.97
2019-04-19T22:56:34.596Z,101236.80
2019-04-19T22:58:58.163Z,101238.02
2019-04-19T23:01:28.012Z,101239.41
2019-04-19T23:03:54.709Z,101243.45
2019-04-19T23:06:24.757Z,101244.38
2019-04-19T23:08:50.516Z,101243.62
2019-04-19T23:11:17.365Z,101235.80
2019-04-19T23:13:45.299Z,101244.70
2019-04-19T23:16:12.293Z,101236.63
2019-04-19T23:18:41.287Z,101236.80
2019-04-19T23:21:12.903Z,101232.94
2019-04-19T23:23:36.428Z,101243.17
2019-04-19T23:26:17.584Z,101237.20
2019-04-19T23:28:36.686Z,101239.44
2019-04-19T23:31:08.436Z,101241.02
2019-04-19T23:33:28.436Z,101239.09
2019-04-19T23:35:55.547Z,101239.98
2019-04-19T23:38:25.662Z,101240.83
2019-04-19T23:40:51.009Z,101239.83
2019-04-19T23:43:24.229Z,101230.53
2019-04-19T23:45:47.967Z,101231.27
2019-04-19T23:48:20.092Z,101231.27
2019-04-19T23:50:42.607Z,101226.94
2019-04-19T23:53:10.168Z,101222.99
2019-04-19T23:55:36.663Z,101223.14
2019-04-19T23:58:03.222Z,101223.10
